sensor_id;sensor_type;location;lat;lon;timestamp;P1;durP1;ratioP1;P2;durP2;ratioP2
2564;SDS011;1292;48.020;7.822;2023-02-28T06:47:16;4.87;;;4.43;;
2564;SDS011;1292;48.020;7.822;2023-02-28T06:49:43;5.00;;;4.00;;
2564;SDS011;1292;48.020;7.822;2023-02-28T06:52:10;6.00;;;4.50;;
2564;SDS011;1292;48.020;7.822;2023-02-28T06:54:37;4.00;;;3.53;;
2564;SDS011;1292;48.020;7.822;2023-02-28T06:57:04;4.27;;;3.70;;
2564;SDS011;1292;48.020;7.822;2023-02-28T06:59:31;6.90;;;5.00;;
2564;SDS011;1292;48.020;7.822;2023-02-28T07:01:58;8.30;;;4.67;;
2564;SDS011;1292;48.020;7.822;2023-02-28T07:04:26;5.53;;;4.90;;
2564;SDS011;1292;48.020;7.822;2023-02-28T07:06:54;4.63;;;3.70;;
2564;SDS011;1292;48.020;7.822;2023-02-28T07:09:22;4.30;;;3.87;;
2564;SDS011;1292;48.020;7.822;2023-02-28T07:11:48;5.20;;;3.80;;
2564;SDS011;1292;48.020;7.822;2023-02-28T07:14:15;5.23;;;4.00;;
2564;SDS011;1292;48.020;7.822;2023-02-28T07:16:42;5.20;;;3.93;;
2564;SDS011;1292;48.020;7.822;2023-02-28T07:19:10;5.43;;;4.57;;
2564;SDS011;1292;48.020;7.822;2023-02-28T07:21:38;4.77;;;4.27;;
2564;SDS011;1292;48.020;7.822;2023-02-28T07:24:05;5.43;;;4.67;;
2564;SDS011;1292;48.020;7.822;2023-02-28T07:26:32;6.13;;;4.77;;
2564;SDS011;1292;48.020;7.822;2023-02-28T07:29:00;7.57;;;4.67;;
2564;SDS011;1292;48.020;7.822;2023-02-28T07:31:27;4.47;;;4.07;;
2564;SDS011;1292;48.020;7.822;2023-02-28T07:33:54;6.57;;;4.00;;
2564;SDS011;1292;48.020;7.822;2023-02-28T07:36:21;4.53;;;3.60;;
2564;SDS011;1292;48.020;7.822;2023-02-28T07:38:49;5.00;;;4.50;;
2564;SDS011;1292;48.020;7.822;2023-02-28T07:41:16;6.00;;;4.97;;
2564;SDS011;1292;48.020;7.822;2023-02-28T07:43:44;5.80;;;5.00;;
2564;SDS011;1292;48.020;7.822;2023-02-28T07:46:12;5.53;;;4.13;;
2564;SDS011;1292;48.020;7.822;2023-02-28T07:48:41;7.53;;;5.33;;
2564;SDS011;1292;48.020;7.822;2023-02-28T07:51:08;5.33;;;4.77;;
2564;SDS011;1292;48.020;7.822;2023-02-28T07:53:35;11.70;;;5.13;;
2564;SDS011;1292;48.020;7.822;2023-02-28T07:56:03;5.30;;;4.00;;
2564;SDS011;1292;48.020;7.822;2023-02-28T07:58:30;5.47;;;4.93;;
2564;SDS011;1292;48.020;7.822;2023-02-28T08:00:57;7.10;;;4.37;;
2564;SDS011;1292;48.020;7.822;2023-02-28T08:03:31;4.00;;;3.70;;
2564;SDS011;1292;48.020;7.822;2023-02-28T08:05:58;4.07;;;3.60;;
2564;SDS011;1292;48.020;7.822;2023-02-28T08:08:24;5.20;;;4.70;;
2564;SDS011;1292;48.020;7.822;2023-02-28T08:10:54;4.20;;;3.73;;
2564;SDS011;1292;48.020;7.822;2023-02-28T08:13:22;5.20;;;4.10;;
2564;SDS011;1292;48.020;7.822;2023-02-28T08:15:49;7.00;;;4.20;;
2564;SDS011;1292;48.020;7.822;2023-02-28T08:18:16;4.73;;;4.07;;
2564;SDS011;1292;48.020;7.822;2023-02-28T08:20:43;6.30;;;4.87;;
2564;SDS011;1292;48.020;7.822;2023-02-28T08:23:09;4.40;;;4.00;;
2564;SDS011;1292;48.020;7.822;2023-02-28T08:25:36;6.27;;;4.67;;
2564;SDS011;1292;48.020;7.822;2023-02-28T08:28:03;5.03;;;4.40;;
2564;SDS011;1292;48.020;7.822;2023-02-28T08:30:31;6.50;;;3.70;;
2564;SDS011;1292;48.020;7.822;2023-02-28T08:32:58;6.57;;;4.47;;
2564;SDS011;1292;48.020;7.822;2023-02-28T08:35:26;6.97;;;4.90;;
2564;SDS011;1292;48.020;7.822;2023-02-28T08:37:53;7.00;;;5.17;;
2564;SDS011;1292;48.020;7.822;2023-02-28T08:40:20;5.17;;;4.67;;
2564;SDS011;1292;48.020;7.822;2023-02-28T08:42:47;7.77;;;4.77;;
2564;SDS011;1292;48.020;7.822;2023-02-28T08:45:14;5.40;;;4.77;;
2564;SDS011;1292;48.020;7.822;2023-02-28T08:47:42;5.80;;;4.70;;
2564;SDS011;1292;48.020;7.822;2023-02-28T08:50:09;6.33;;;4.90;;
2564;SDS011;1292;48.020;7.822;2023-02-28T08:52:39;6.73;;;5.70;;
2564;SDS011;1292;48.020;7.822;2023-02-28T08:55:08;6.57;;;5.17;;
2564;SDS011;1292;48.020;7.822;2023-02-28T08:57:35;6.50;;;4.60;;
2564;SDS011;1292;48.020;7.822;2023-02-28T09:00:02;6.40;;;5.30;;
2564;SDS011;1292;48.020;7.822;2023-02-28T09:02:30;4.83;;;4.30;;
2564;SDS011;1292;48.020;7.822;2023-02-28T09:04:58;6.60;;;5.00;;
2564;SDS011;1292;48.020;7.822;2023-02-28T09:07:25;6.90;;;5.23;;
2564;SDS011;1292;48.020;7.822;2023-02-28T09:09:52;6.97;;;5.40;;
2564;SDS011;1292;48.020;7.822;2023-02-28T09:12:23;6.03;;;4.70;;
2564;SDS011;1292;48.020;7.822;2023-02-28T09:14:50;7.10;;;5.60;;
2564;SDS011;1292;48.020;7.822;2023-02-28T09:17:18;7.47;;;5.87;;
2564;SDS011;1292;48.020;7.822;2023-02-28T09:19:47;8.20;;;5.30;;
2564;SDS011;1292;48.020;7.822;2023-02-28T09:22:15;6.63;;;4.90;;
2564;SDS011;1292;48.020;7.822;2023-02-28T09:24:42;5.73;;;4.93;;
2564;SDS011;1292;48.020;7.822;2023-02-28T09:27:10;6.90;;;5.50;;
2564;SDS011;1292;48.020;7.822;2023-02-28T09:29:36;7.00;;;5.13;;
2564;SDS011;1292;48.020;7.822;2023-02-28T09:32:03;5.27;;;4.70;;
2564;SDS011;1292;48.020;7.822;2023-02-28T09:34:31;6.27;;;5.40;;
2564;SDS011;1292;48.020;7.822;2023-02-28T09:36:58;8.57;;;5.40;;
2564;SDS011;1292;48.020;7.822;2023-02-28T09:39:26;6.33;;;5.13;;
2564;SDS011;1292;48.020;7.822;2023-02-28T09:41:54;8.33;;;5.00;;
2564;SDS011;1292;48.020;7.822;2023-02-28T09:44:23;5.77;;;4.80;;
2564;SDS011;1292;48.020;7.822;2023-02-28T09:46:55;6.00;;;5.40;;
2564;SDS011;1292;48.020;7.822;2023-02-28T09:49:28;7.73;;;5.53;;
2564;SDS011;1292;48.020;7.822;2023-02-28T09:51:59;8.73;;;5.30;;
2564;SDS011;1292;48.020;7.822;2023-02-28T09:54:31;6.70;;;6.00;;
2564;SDS011;1292;48.020;7.822;2023-02-28T09:56:59;6.20;;;5.23;;
2564;SDS011;1292;48.020;7.822;2023-02-28T09:59:35;6.77;;;5.23;;
2564;SDS011;1292;48.020;7.822;2023-02-28T10:02:17;6.73;;;5.13;;
2564;SDS011;1292;48.020;7.822;2023-02-28T10:05:06;5.70;;;5.00;;
2564;SDS011;1292;48.020;7.822;2023-02-28T10:07:48;6.67;;;5.33;;
2564;SDS011;1292;48.020;7.822;2023-02-28T10:10:24;7.70;;;6.07;;
2564;SDS011;1292;48.020;7.822;2023-02-28T10:12:56;34.13;;;18.40;;
2564;SDS011;1292;48.020;7.822;2023-02-28T10:15:27;8.97;;;8.07;;
2564;SDS011;1292;48.020;7.822;2023-02-28T10:17:57;10.87;;;8.90;;
2564;SDS011;1292;48.020;7.822;2023-02-28T10:20:27;9.57;;;5.83;;
2564;SDS011;1292;48.020;7.822;2023-02-28T10:22:58;9.90;;;5.63;;
2564;SDS011;1292;48.020;7.822;2023-02-28T10:25:34;6.30;;;5.10;;
2564;SDS011;1292;48.020;7.822;2023-02-28T10:28:07;7.40;;;5.77;;
2564;SDS011;1292;48.020;7.822;2023-02-28T10:30:36;9.63;;;8.63;;
2564;SDS011;1292;48.020;7.822;2023-02-28T10:33:08;8.07;;;6.20;;
2564;SDS011;1292;48.020;7.822;2023-02-28T10:35:48;8.20;;;7.40;;
2564;SDS011;1292;48.020;7.822;2023-02-28T10:38:17;7.63;;;6.80;;
2564;SDS011;1292;48.020;7.822;2023-02-28T10:40:46;7.50;;;5.87;;
2564;SDS011;1292;48.020;7.822;2023-02-28T10:43:20;8.13;;;7.10;;
2564;SDS011;1292;48.020;7.822;2023-02-28T10:45:53;6.70;;;5.80;;
2564;SDS011;1292;48.020;7.822;2023-02-28T10:48:33;9.73;;;5.83;;
2564;SDS011;1292;48.020;7.822;2023-02-28T10:51:02;6.70;;;5.60;;
2564;SDS011;1292;48.020;7.822;2023-02-28T10:53:33;7.30;;;6.57;;
2564;SDS011;1292;48.020;7.822;2023-02-28T10:56:05;8.57;;;5.07;;
2564;SDS011;1292;48.020;7.822;2023-02-28T10:58:44;6.80;;;5.70;;
2564;SDS011;1292;48.020;7.822;2023-02-28T11:01:18;8.37;;;5.90;;
2564;SDS011;1292;48.020;7.822;2023-02-28T11:03:47;9.50;;;6.50;;
2564;SDS011;1292;48.020;7.822;2023-02-28T11:06:16;7.60;;;6.67;;
2564;SDS011;1292;48.020;7.822;2023-02-28T11:08:47;7.53;;;5.93;;
2564;SDS011;1292;48.020;7.822;2023-02-28T11:11:17;6.17;;;5.53;;
2564;SDS011;1292;48.020;7.822;2023-02-28T11:13:45;9.13;;;7.30;;
2564;SDS011;1292;48.020;7.822;2023-02-28T11:16:15;21.23;;;19.10;;
2564;SDS011;1292;48.020;7.822;2023-02-28T11:18:44;8.07;;;6.13;;
2564;SDS011;1292;48.020;7.822;2023-02-28T11:21:15;8.50;;;6.87;;
2564;SDS011;1292;48.020;7.822;2023-02-28T11:23:46;8.23;;;7.43;;
2564;SDS011;1292;48.020;7.822;2023-02-28T11:26:16;9.53;;;7.20;;
2564;SDS011;1292;48.020;7.822;2023-02-28T11:29:03;9.37;;;5.43;;
2564;SDS011;1292;48.020;7.822;2023-02-28T11:31:37;7.73;;;5.67;;
2564;SDS011;1292;48.020;7.822;2023-02-28T11:34:20;6.33;;;5.73;;
2564;SDS011;1292;48.020;7.822;2023-02-28T11:36:50;6.40;;;5.80;;
2564;SDS011;1292;48.020;7.822;2023-02-28T11:39:19;8.07;;;6.60;;
2564;SDS011;1292;48.020;7.822;2023-02-28T11:41:53;7.07;;;6.40;;
2564;SDS011;1292;48.020;7.822;2023-02-28T11:46:56;6.53;;;5.60;;
2564;SDS011;1292;48.020;7.822;2023-02-28T11:49:30;9.40;;;6.17;;
2564;SDS011;1292;48.020;7.822;2023-02-28T11:52:05;10.53;;;7.57;;
2564;SDS011;1292;48.020;7.822;2023-02-28T11:54:47;7.10;;;6.40;;
2564;SDS011;1292;48.020;7.822;2023-02-28T11:57:26;6.77;;;6.07;;
2564;SDS011;1292;48.020;7.822;2023-02-28T12:00:00;7.13;;;6.20;;
2564;SDS011;1292;48.020;7.822;2023-02-28T12:02:35;8.10;;;6.80;;
2564;SDS011;1292;48.020;7.822;2023-02-28T12:05:23;6.40;;;5.60;;
2564;SDS011;1292;48.020;7.822;2023-02-28T12:07:56;9.93;;;6.00;;
2564;SDS011;1292;48.020;7.822;2023-02-28T12:10:29;7.17;;;5.70;;
2564;SDS011;1292;48.020;7.822;2023-02-28T12:13:11;8.23;;;6.20;;
2564;SDS011;1292;48.020;7.822;2023-02-28T12:18:59;5.90;;;4.90;;
2564;SDS011;1292;48.020;7.822;2023-02-28T12:21:36;8.83;;;7.00;;
2564;SDS011;1292;48.020;7.822;2023-02-28T12:24:24;7.37;;;6.67;;
2564;SDS011;1292;48.020;7.822;2023-02-28T12:27:03;7.37;;;6.30;;
2564;SDS011;1292;48.020;7.822;2023-02-28T12:29:37;7.57;;;6.60;;
2564;SDS011;1292;48.020;7.822;2023-02-28T12:32:09;6.77;;;5.53;;
2564;SDS011;1292;48.020;7.822;2023-02-28T12:34:42;7.70;;;5.60;;
2564;SDS011;1292;48.020;7.822;2023-02-28T12:37:14;8.13;;;6.60;;
2564;SDS011;1292;48.020;7.822;2023-02-28T12:39:46;10.67;;;6.67;;
2564;SDS011;1292;48.020;7.822;2023-02-28T12:42:17;10.43;;;6.40;;
2564;SDS011;1292;48.020;7.822;2023-02-28T12:44:51;8.30;;;7.07;;
2564;SDS011;1292;48.020;7.822;2023-02-28T12:47:20;8.80;;;7.07;;
2564;SDS011;1292;48.020;7.822;2023-02-28T12:49:48;8.73;;;6.83;;
2564;SDS011;1292;48.020;7.822;2023-02-28T12:52:20;7.20;;;6.50;;
2564;SDS011;1292;48.020;7.822;2023-02-28T12:54:52;8.90;;;6.60;;
2564;SDS011;1292;48.020;7.822;2023-02-28T12:57:23;9.50;;;5.93;;
2564;SDS011;1292;48.020;7.822;2023-02-28T13:00:00;9.27;;;6.80;;
2564;SDS011;1292;48.020;7.822;2023-02-28T13:02:44;7.60;;;6.40;;
2564;SDS011;1292;48.020;7.822;2023-02-28T13:05:56;8.23;;;6.80;;
2564;SDS011;1292;48.020;7.822;2023-02-28T13:11:40;8.87;;;7.07;;
2564;SDS011;1292;48.020;7.822;2023-02-28T13:14:16;7.50;;;6.90;;
2564;SDS011;1292;48.020;7.822;2023-02-28T13:17:09;6.20;;;5.63;;
2564;SDS011;1292;48.020;7.822;2023-02-28T13:19:38;10.60;;;6.73;;
2564;SDS011;1292;48.020;7.822;2023-02-28T13:22:16;7.10;;;5.50;;
2564;SDS011;1292;48.020;7.822;2023-02-28T13:24:46;9.77;;;7.03;;
2564;SDS011;1292;48.020;7.822;2023-02-28T13:33:27;9.05;;;7.43;;
2564;SDS011;1292;48.020;7.822;2023-02-28T13:36:06;8.37;;;7.57;;
2564;SDS011;1292;48.020;7.822;2023-02-28T13:38:36;9.67;;;7.87;;
2564;SDS011;1292;48.020;7.822;2023-02-28T13:44:21;11.57;;;7.13;;
2564;SDS011;1292;48.020;7.822;2023-02-28T13:49:50;7.60;;;6.90;;
2564;SDS011;1292;48.020;7.822;2023-02-28T13:52:18;7.43;;;6.30;;
2564;SDS011;1292;48.020;7.822;2023-02-28T13:54:52;7.73;;;6.07;;
2564;SDS011;1292;48.020;7.822;2023-02-28T13:57:50;7.50;;;6.70;;
2564;SDS011;1292;48.020;7.822;2023-02-28T14:00:35;9.03;;;7.83;;
2564;SDS011;1292;48.020;7.822;2023-02-28T14:03:14;9.27;;;6.63;;
2564;SDS011;1292;48.020;7.822;2023-02-28T14:06:09;10.70;;;7.80;;
2564;SDS011;1292;48.020;7.822;2023-02-28T14:08:45;11.83;;;8.90;;
2564;SDS011;1292;48.020;7.822;2023-02-28T14:11:25;9.73;;;7.37;;
2564;SDS011;1292;48.020;7.822;2023-02-28T14:13:54;10.20;;;6.77;;
2564;SDS011;1292;48.020;7.822;2023-02-28T14:16:21;8.10;;;6.47;;
2564;SDS011;1292;48.020;7.822;2023-02-28T14:18:52;8.93;;;7.73;;
2564;SDS011;1292;48.020;7.822;2023-02-28T14:21:26;9.43;;;7.33;;
2564;SDS011;1292;48.020;7.822;2023-02-28T14:24:02;9.10;;;7.70;;
2564;SDS011;1292;48.020;7.822;2023-02-28T14:27:03;7.73;;;6.90;;
2564;SDS011;1292;48.020;7.822;2023-02-28T14:30:08;10.90;;;7.20;;
2564;SDS011;1292;48.020;7.822;2023-02-28T14:32:59;8.03;;;7.23;;
2564;SDS011;1292;48.020;7.822;2023-02-28T14:35:45;10.60;;;7.60;;
2564;SDS011;1292;48.020;7.822;2023-02-28T14:38:25;12.67;;;7.50;;
2564;SDS011;1292;48.020;7.822;2023-02-28T14:40:56;9.10;;;6.97;;
2564;SDS011;1292;48.020;7.822;2023-02-28T14:43:27;12.27;;;8.27;;
2564;SDS011;1292;48.020;7.822;2023-02-28T14:45:55;11.13;;;6.93;;
2564;SDS011;1292;48.020;7.822;2023-02-28T14:48:24;9.50;;;6.93;;
2564;SDS011;1292;48.020;7.822;2023-02-28T14:50:52;9.90;;;7.00;;
2564;SDS011;1292;48.020;7.822;2023-02-28T14:53:21;8.30;;;7.23;;
2564;SDS011;1292;48.020;7.822;2023-02-28T14:55:52;10.17;;;7.47;;
2564;SDS011;1292;48.020;7.822;2023-02-28T14:58:21;11.60;;;7.27;;
2564;SDS011;1292;48.020;7.822;2023-02-28T15:00:51;9.87;;;6.43;;
2564;SDS011;1292;48.020;7.822;2023-02-28T15:03:20;8.03;;;6.97;;
2564;SDS011;1292;48.020;7.822;2023-02-28T15:05:52;8.43;;;6.80;;
2564;SDS011;1292;48.020;7.822;2023-02-28T15:08:20;14.43;;;8.07;;
2564;SDS011;1292;48.020;7.822;2023-02-28T15:10:53;10.70;;;7.67;;
2564;SDS011;1292;48.020;7.822;2023-02-28T15:13:22;12.50;;;11.17;;
2564;SDS011;1292;48.020;7.822;2023-02-28T15:15:54;11.97;;;9.43;;
2564;SDS011;1292;48.020;7.822;2023-02-28T15:18:26;8.30;;;7.50;;
2564;SDS011;1292;48.020;7.822;2023-02-28T15:20:57;10.27;;;8.03;;
2564;SDS011;1292;48.020;7.822;2023-02-28T15:23:28;8.77;;;7.40;;
2564;SDS011;1292;48.020;7.822;2023-02-28T15:25:57;11.03;;;9.27;;
2564;SDS011;1292;48.020;7.822;2023-02-28T15:28:25;14.97;;;11.23;;
2564;SDS011;1292;48.020;7.822;2023-02-28T15:30:54;12.87;;;10.23;;
2564;SDS011;1292;48.020;7.822;2023-02-28T15:33:23;13.30;;;9.30;;
2564;SDS011;1292;48.020;7.822;2023-02-28T15:35:51;13.50;;;10.63;;
2564;SDS011;1292;48.020;7.822;2023-02-28T15:38:28;16.33;;;11.13;;
2564;SDS011;1292;48.020;7.822;2023-02-28T15:40:56;15.93;;;11.40;;
2564;SDS011;1292;48.020;7.822;2023-02-28T15:43:26;26.97;;;15.00;;
2564;SDS011;1292;48.020;7.822;2023-02-28T15:45:55;14.83;;;11.20;;
2564;SDS011;1292;48.020;7.822;2023-02-28T15:48:25;29.27;;;15.73;;
2564;SDS011;1292;48.020;7.822;2023-02-28T15:50:56;21.70;;;13.57;;
2564;SDS011;1292;48.020;7.822;2023-02-28T15:53:29;34.53;;;20.13;;
2564;SDS011;1292;48.020;7.822;2023-02-28T15:56:01;22.33;;;15.10;;
2564;SDS011;1292;48.020;7.822;2023-02-28T15:58:29;15.43;;;11.97;;
2564;SDS011;1292;48.020;7.822;2023-02-28T16:01:06;18.03;;;12.27;;
2564;SDS011;1292;48.020;7.822;2023-02-28T16:03:43;21.97;;;13.67;;
2564;SDS011;1292;48.020;7.822;2023-02-28T16:09:02;15.97;;;11.53;;
2564;SDS011;1292;48.020;7.822;2023-02-28T16:11:34;23.90;;;16.00;;
2564;SDS011;1292;48.020;7.822;2023-02-28T16:14:03;17.77;;;11.87;;
2564;SDS011;1292;48.020;7.822;2023-02-28T16:16:31;21.80;;;14.30;;
2564;SDS011;1292;48.020;7.822;2023-02-28T16:18:59;9.03;;;7.70;;
2564;SDS011;1292;48.020;7.822;2023-02-28T16:21:25;15.53;;;11.73;;
2564;SDS011;1292;48.020;7.822;2023-02-28T16:23:52;21.23;;;14.43;;
2564;SDS011;1292;48.020;7.822;2023-02-28T16:26:21;12.23;;;10.47;;
2564;SDS011;1292;48.020;7.822;2023-02-28T16:28:51;17.67;;;14.03;;
2564;SDS011;1292;48.020;7.822;2023-02-28T16:31:18;11.37;;;10.17;;
2564;SDS011;1292;48.020;7.822;2023-02-28T16:33:46;15.63;;;8.70;;
2564;SDS011;1292;48.020;7.822;2023-02-28T16:36:14;11.33;;;8.47;;
2564;SDS011;1292;48.020;7.822;2023-02-28T16:38:42;15.83;;;9.30;;
2564;SDS011;1292;48.020;7.822;2023-02-28T16:41:11;10.00;;;8.70;;
2564;SDS011;1292;48.020;7.822;2023-02-28T16:43:43;12.00;;;9.20;;
2564;SDS011;1292;48.020;7.822;2023-02-28T16:46:13;12.87;;;10.10;;
2564;SDS011;1292;48.020;7.822;2023-02-28T16:48:41;10.07;;;9.07;;
2564;SDS011;1292;48.020;7.822;2023-02-28T16:51:11;11.43;;;10.00;;
2564;SDS011;1292;48.020;7.822;2023-02-28T16:53:38;12.67;;;9.47;;
2564;SDS011;1292;48.020;7.822;2023-02-28T16:56:06;8.27;;;7.07;;
2564;SDS011;1292;48.020;7.822;2023-02-28T16:58:38;11.30;;;9.43;;
2564;SDS011;1292;48.020;7.822;2023-02-28T17:01:05;13.27;;;10.23;;
2564;SDS011;1292;48.020;7.822;2023-02-28T17:03:33;12.40;;;10.80;;
2564;SDS011;1292;48.020;7.822;2023-02-28T17:06:01;10.77;;;9.17;;
2564;SDS011;1292;48.020;7.822;2023-02-28T17:08:28;10.50;;;8.87;;
2564;SDS011;1292;48.020;7.822;2023-02-28T17:10:57;10.67;;;9.00;;
2564;SDS011;1292;48.020;7.822;2023-02-28T17:13:23;10.73;;;8.50;;
2564;SDS011;1292;48.020;7.822;2023-02-28T17:15:50;9.33;;;8.43;;
2564;SDS011;1292;48.020;7.822;2023-02-28T17:18:17;9.20;;;8.27;;
2564;SDS011;1292;48.020;7.822;2023-02-28T17:20:48;9.77;;;8.80;;
2564;SDS011;1292;48.020;7.822;2023-02-28T17:23:15;10.17;;;9.00;;
2564;SDS011;1292;48.020;7.822;2023-02-28T17:25:42;10.33;;;9.23;;
2564;SDS011;1292;48.020;7.822;2023-02-28T17:28:18;8.60;;;7.50;;
2564;SDS011;1292;48.020;7.822;2023-02-28T17:30:45;8.17;;;7.37;;
2564;SDS011;1292;48.020;7.822;2023-02-28T17:33:13;9.03;;;8.07;;
2564;SDS011;1292;48.020;7.822;2023-02-28T17:35:40;10.73;;;9.00;;
2564;SDS011;1292;48.020;7.822;2023-02-28T17:38:10;11.63;;;7.40;;
2564;SDS011;1292;48.020;7.822;2023-02-28T17:40:42;11.33;;;8.27;;
2564;SDS011;1292;48.020;7.822;2023-02-28T17:43:09;8.70;;;7.90;;
2564;SDS011;1292;48.020;7.822;2023-02-28T17:45:36;11.20;;;9.10;;
2564;SDS011;1292;48.020;7.822;2023-02-28T17:48:03;10.33;;;9.33;;
2564;SDS011;1292;48.020;7.822;2023-02-28T17:50:31;12.53;;;9.33;;
2564;SDS011;1292;48.020;7.822;2023-02-28T17:52:58;12.67;;;10.07;;
2564;SDS011;1292;48.020;7.822;2023-02-28T17:55:26;12.03;;;10.53;;
2564;SDS011;1292;48.020;7.822;2023-02-28T17:57:53;12.87;;;10.37;;
2564;SDS011;1292;48.020;7.822;2023-02-28T18:00:20;16.03;;;11.40;;
2564;SDS011;1292;48.020;7.822;2023-02-28T18:02:49;12.73;;;11.10;;
2564;SDS011;1292;48.020;7.822;2023-02-28T18:05:16;9.83;;;8.40;;
2564;SDS011;1292;48.020;7.822;2023-02-28T18:07:43;10.57;;;7.70;;
2564;SDS011;1292;48.020;7.822;2023-02-28T18:10:12;12.93;;;9.70;;
2564;SDS011;1292;48.020;7.822;2023-02-28T18:12:45;9.50;;;8.50;;
2564;SDS011;1292;48.020;7.822;2023-02-28T18:15:12;14.97;;;9.07;;
2564;SDS011;1292;48.020;7.822;2023-02-28T18:17:39;12.20;;;8.10;;
2564;SDS011;1292;48.020;7.822;2023-02-28T18:20:07;10.97;;;9.87;;
2564;SDS011;1292;48.020;7.822;2023-02-28T18:22:35;15.13;;;9.63;;
2564;SDS011;1292;48.020;7.822;2023-02-28T18:25:02;11.70;;;8.27;;
2564;SDS011;1292;48.020;7.822;2023-02-28T18:27:30;10.53;;;8.70;;
2564;SDS011;1292;48.020;7.822;2023-02-28T18:29:58;10.40;;;9.23;;
2564;SDS011;1292;48.020;7.822;2023-02-28T18:32:25;12.20;;;8.63;;
2564;SDS011;1292;48.020;7.822;2023-02-28T18:34:51;10.33;;;9.03;;
2564;SDS011;1292;48.020;7.822;2023-02-28T18:37:19;16.17;;;8.70;;
2564;SDS011;1292;48.020;7.822;2023-02-28T18:39:45;14.23;;;9.43;;
2564;SDS011;1292;48.020;7.822;2023-02-28T18:42:12;14.17;;;9.97;;
2564;SDS011;1292;48.020;7.822;2023-02-28T18:44:40;13.60;;;9.70;;
2564;SDS011;1292;48.020;7.822;2023-02-28T18:47:08;10.77;;;9.13;;
2564;SDS011;1292;48.020;7.822;2023-02-28T18:49:35;12.57;;;9.30;;
2564;SDS011;1292;48.020;7.822;2023-02-28T18:52:02;12.33;;;10.00;;
2564;SDS011;1292;48.020;7.822;2023-02-28T18:54:29;9.93;;;8.10;;
2564;SDS011;1292;48.020;7.822;2023-02-28T18:56:56;10.57;;;8.60;;
2564;SDS011;1292;48.020;7.822;2023-02-28T18:59:23;12.70;;;8.77;;
2564;SDS011;1292;48.020;7.822;2023-02-28T19:01:51;13.87;;;9.50;;
2564;SDS011;1292;48.020;7.822;2023-02-28T19:04:19;15.33;;;9.07;;
2564;SDS011;1292;48.020;7.822;2023-02-28T19:06:46;10.87;;;9.43;;
2564;SDS011;1292;48.020;7.822;2023-02-28T19:09:13;12.93;;;9.57;;
2564;SDS011;1292;48.020;7.822;2023-02-28T19:11:40;10.97;;;8.97;;
2564;SDS011;1292;48.020;7.822;2023-02-28T19:14:07;14.13;;;10.90;;
2564;SDS011;1292;48.020;7.822;2023-02-28T19:16:34;12.10;;;9.23;;
2564;SDS011;1292;48.020;7.822;2023-02-28T19:19:01;11.73;;;9.60;;
2564;SDS011;1292;48.020;7.822;2023-02-28T19:21:29;11.60;;;8.73;;
2564;SDS011;1292;48.020;7.822;2023-02-28T19:23:56;10.60;;;9.30;;
2564;SDS011;1292;48.020;7.822;2023-02-28T19:26:23;11.20;;;9.10;;
2564;SDS011;1292;48.020;7.822;2023-02-28T19:28:51;10.93;;;9.83;;
2564;SDS011;1292;48.020;7.822;2023-02-28T19:31:18;12.40;;;9.67;;
2564;SDS011;1292;48.020;7.822;2023-02-28T19:33:47;14.90;;;9.50;;
2564;SDS011;1292;48.020;7.822;2023-02-28T19:36:16;12.30;;;9.77;;
2564;SDS011;1292;48.020;7.822;2023-02-28T19:38:45;11.20;;;9.00;;
2564;SDS011;1292;48.020;7.822;2023-02-28T19:41:13;12.60;;;8.50;;
2564;SDS011;1292;48.020;7.822;2023-02-28T19:43:41;13.83;;;10.87;;
2564;SDS011;1292;48.020;7.822;2023-02-28T19:46:08;22.33;;;11.60;;
2564;SDS011;1292;48.020;7.822;2023-02-28T19:48:36;16.90;;;10.97;;
2564;SDS011;1292;48.020;7.822;2023-02-28T19:51:04;15.40;;;11.80;;
2564;SDS011;1292;48.020;7.822;2023-02-28T19:53:33;14.20;;;10.53;;
2564;SDS011;1292;48.020;7.822;2023-02-28T19:56:03;14.27;;;11.43;;
2564;SDS011;1292;48.020;7.822;2023-02-28T19:58:30;19.30;;;13.20;;
2564;SDS011;1292;48.020;7.822;2023-02-28T20:00:58;17.97;;;10.87;;
2564;SDS011;1292;48.020;7.822;2023-02-28T20:03:32;16.93;;;11.13;;
2564;SDS011;1292;48.020;7.822;2023-02-28T20:05:59;12.53;;;10.27;;
2564;SDS011;1292;48.020;7.822;2023-02-28T20:08:27;17.60;;;13.10;;
2564;SDS011;1292;48.020;7.822;2023-02-28T20:10:54;21.90;;;15.00;;
2564;SDS011;1292;48.020;7.822;2023-02-28T20:13:28;18.80;;;12.70;;
2564;SDS011;1292;48.020;7.822;2023-02-28T20:15:57;21.03;;;14.50;;
2564;SDS011;1292;48.020;7.822;2023-02-28T20:18:26;20.57;;;13.53;;
2564;SDS011;1292;48.020;7.822;2023-02-28T20:20:53;18.97;;;12.93;;
2564;SDS011;1292;48.020;7.822;2023-02-28T20:23:19;15.20;;;11.30;;
2564;SDS011;1292;48.020;7.822;2023-02-28T20:25:46;20.30;;;14.57;;
2564;SDS011;1292;48.020;7.822;2023-02-28T20:28:15;21.60;;;15.90;;
2564;SDS011;1292;48.020;7.822;2023-02-28T20:30:43;26.57;;;19.43;;
2564;SDS011;1292;48.020;7.822;2023-02-28T20:33:12;26.33;;;19.03;;
2564;SDS011;1292;48.020;7.822;2023-02-28T20:35:39;19.03;;;16.93;;
2564;SDS011;1292;48.020;7.822;2023-02-28T20:38:06;19.50;;;14.90;;
2564;SDS011;1292;48.020;7.822;2023-02-28T20:40:33;21.53;;;13.77;;
2564;SDS011;1292;48.020;7.822;2023-02-28T20:43:00;21.60;;;14.47;;
2564;SDS011;1292;48.020;7.822;2023-02-28T20:45:26;19.13;;;12.90;;
2564;SDS011;1292;48.020;7.822;2023-02-28T20:47:54;21.63;;;13.97;;
2564;SDS011;1292;48.020;7.822;2023-02-28T20:50:21;16.53;;;12.40;;
2564;SDS011;1292;48.020;7.822;2023-02-28T20:52:48;17.87;;;12.00;;
2564;SDS011;1292;48.020;7.822;2023-02-28T20:55:15;15.13;;;11.80;;
2564;SDS011;1292;48.020;7.822;2023-02-28T20:57:42;38.77;;;18.67;;
2564;SDS011;1292;48.020;7.822;2023-02-28T21:00:09;53.50;;;22.97;;
2564;SDS011;1292;48.020;7.822;2023-02-28T21:02:40;43.63;;;20.93;;
2564;SDS011;1292;48.020;7.822;2023-02-28T21:05:08;31.63;;;17.20;;
2564;SDS011;1292;48.020;7.822;2023-02-28T21:07:35;28.23;;;17.23;;
2564;SDS011;1292;48.020;7.822;2023-02-28T21:10:02;32.40;;;16.20;;
2564;SDS011;1292;48.020;7.822;2023-02-28T21:12:29;23.40;;;13.93;;
2564;SDS011;1292;48.020;7.822;2023-02-28T21:14:56;18.73;;;14.37;;
2564;SDS011;1292;48.020;7.822;2023-02-28T21:17:22;14.97;;;11.70;;
2564;SDS011;1292;48.020;7.822;2023-02-28T21:19:49;15.37;;;10.00;;
2564;SDS011;1292;48.020;7.822;2023-02-28T21:22:17;19.90;;;11.90;;
2564;SDS011;1292;48.020;7.822;2023-02-28T21:24:44;17.07;;;10.83;;
2564;SDS011;1292;48.020;7.822;2023-02-28T21:27:11;20.37;;;14.40;;
2564;SDS011;1292;48.020;7.822;2023-02-28T21:29:38;14.30;;;10.67;;
2564;SDS011;1292;48.020;7.822;2023-02-28T21:32:05;15.23;;;10.67;;
2564;SDS011;1292;48.020;7.822;2023-02-28T21:34:32;23.87;;;12.27;;
2564;SDS011;1292;48.020;7.822;2023-02-28T21:36:59;15.80;;;9.93;;
2564;SDS011;1292;48.020;7.822;2023-02-28T21:39:27;10.70;;;9.47;;
2564;SDS011;1292;48.020;7.822;2023-02-28T21:41:55;13.00;;;11.30;;
2564;SDS011;1292;48.020;7.822;2023-02-28T21:44:27;16.73;;;12.57;;
2564;SDS011;1292;48.020;7.822;2023-02-28T21:46:54;29.93;;;16.80;;
2564;SDS011;1292;48.020;7.822;2023-02-28T21:49:26;24.17;;;13.97;;
2564;SDS011;1292;48.020;7.822;2023-02-28T21:51:53;39.10;;;19.27;;
2564;SDS011;1292;48.020;7.822;2023-02-28T21:54:19;25.30;;;14.10;;
2564;SDS011;1292;48.020;7.822;2023-02-28T21:56:48;26.87;;;16.27;;
2564;SDS011;1292;48.020;7.822;2023-02-28T21:59:15;20.27;;;13.47;;
